sensor_id;sensor_type;location;lat;lon;timestamp;P1;durP1;ratioP1;P2;durP2;ratioP2
67528;SDS011;54366;51.980;5.856;2022-12-18T00:01:24;68.00;;;37.58;;
67528;SDS011;54366;51.980;5.856;2022-12-18T00:04:02;63.50;;;35.28;;
67528;SDS011;54366;51.980;5.856;2022-12-18T00:06:33;70.85;;;36.40;;
67528;SDS011;54366;51.980;5.856;2022-12-18T00:09:02;65.85;;;37.47;;
67528;SDS011;54366;51.980;5.856;2022-12-18T00:11:29;59.05;;;34.28;;
67528;SDS011;54366;51.980;5.856;2022-12-18T00:13:57;64.40;;;36.15;;
67528;SDS011;54366;51.980;5.856;2022-12-18T00:16:25;63.20;;;34.33;;
67528;SDS011;54366;51.980;5.856;2022-12-18T00:18:53;58.53;;;34.08;;
67528;SDS011;54366;51.980;5.856;2022-12-18T00:21:21;66.18;;;36.47;;
67528;SDS011;54366;51.980;5.856;2022-12-18T00:23:48;63.40;;;35.60;;
67528;SDS011;54366;51.980;5.856;2022-12-18T00:26:16;60.53;;;34.38;;
67528;SDS011;54366;51.980;5.856;2022-12-18T00:28:45;58.08;;;33.78;;
67528;SDS011;54366;51.980;5.856;2022-12-18T00:31:13;57.35;;;32.75;;
67528;SDS011;54366;51.980;5.856;2022-12-18T00:33:41;60.42;;;34.10;;
67528;SDS011;54366;51.980;5.856;2022-12-18T00:36:19;55.35;;;31.98;;
67528;SDS011;54366;51.980;5.856;2022-12-18T00:38:47;49.88;;;30.23;;
67528;SDS011;54366;51.980;5.856;2022-12-18T00:41:17;53.13;;;32.10;;
67528;SDS011;54366;51.980;5.856;2022-12-18T00:44:04;50.38;;;31.15;;
67528;SDS011;54366;51.980;5.856;2022-12-18T00:46:31;50.55;;;30.65;;
67528;SDS011;54366;51.980;5.856;2022-12-18T00:48:58;50.65;;;31.75;;
67528;SDS011;54366;51.980;5.856;2022-12-18T00:51:25;50.50;;;31.48;;
67528;SDS011;54366;51.980;5.856;2022-12-18T00:53:52;45.83;;;29.42;;
67528;SDS011;54366;51.980;5.856;2022-12-18T00:56:18;54.30;;;31.70;;
67528;SDS011;54366;51.980;5.856;2022-12-18T00:58:48;48.03;;;30.10;;
67528;SDS011;54366;51.980;5.856;2022-12-18T01:01:15;45.80;;;29.33;;
67528;SDS011;54366;51.980;5.856;2022-12-18T01:03:41;47.35;;;29.08;;
67528;SDS011;54366;51.980;5.856;2022-12-18T01:06:09;50.53;;;31.70;;
67528;SDS011;54366;51.980;5.856;2022-12-18T01:08:37;48.10;;;29.55;;
67528;SDS011;54366;51.980;5.856;2022-12-18T01:11:14;49.28;;;30.98;;
67528;SDS011;54366;51.980;5.856;2022-12-18T01:13:42;49.67;;;28.77;;
67528;SDS011;54366;51.980;5.856;2022-12-18T01:16:11;49.70;;;29.15;;
67528;SDS011;54366;51.980;5.856;2022-12-18T01:18:38;46.90;;;30.20;;
67528;SDS011;54366;51.980;5.856;2022-12-18T01:21:06;49.65;;;30.02;;
67528;SDS011;54366;51.980;5.856;2022-12-18T01:23:36;51.58;;;31.20;;
67528;SDS011;54366;51.980;5.856;2022-12-18T01:26:04;45.30;;;27.80;;
67528;SDS011;54366;51.980;5.856;2022-12-18T01:28:38;48.75;;;28.55;;
67528;SDS011;54366;51.980;5.856;2022-12-18T01:34:01;40.90;;;26.05;;
67528;SDS011;54366;51.980;5.856;2022-12-18T01:36:30;41.92;;;26.23;;
67528;SDS011;54366;51.980;5.856;2022-12-18T01:38:59;42.60;;;26.30;;
67528;SDS011;54366;51.980;5.856;2022-12-18T01:41:28;44.33;;;27.45;;
67528;SDS011;54366;51.980;5.856;2022-12-18T01:47:21;43.78;;;27.00;;
67528;SDS011;54366;51.980;5.856;2022-12-18T01:50:22;43.65;;;27.17;;
67528;SDS011;54366;51.980;5.856;2022-12-18T01:53:14;43.63;;;26.90;;
67528;SDS011;54366;51.980;5.856;2022-12-18T01:55:53;40.33;;;26.02;;
67528;SDS011;54366;51.980;5.856;2022-12-18T01:59:04;40.50;;;24.67;;
67528;SDS011;54366;51.980;5.856;2022-12-18T02:01:31;41.78;;;26.02;;
67528;SDS011;54366;51.980;5.856;2022-12-18T02:04:17;37.30;;;24.08;;
67528;SDS011;54366;51.980;5.856;2022-12-18T02:06:57;40.35;;;25.60;;
67528;SDS011;54366;51.980;5.856;2022-12-18T02:09:35;42.40;;;25.40;;
67528;SDS011;54366;51.980;5.856;2022-12-18T02:12:18;40.80;;;24.23;;
67528;SDS011;54366;51.980;5.856;2022-12-18T02:14:59;41.53;;;25.13;;
67528;SDS011;54366;51.980;5.856;2022-12-18T02:17:48;43.42;;;25.08;;
67528;SDS011;54366;51.980;5.856;2022-12-18T02:20:21;38.50;;;24.90;;
67528;SDS011;54366;51.980;5.856;2022-12-18T02:26:33;40.33;;;24.67;;
67528;SDS011;54366;51.980;5.856;2022-12-18T02:29:13;40.70;;;25.10;;
67528;SDS011;54366;51.980;5.856;2022-12-18T02:32:15;40.08;;;25.13;;
67528;SDS011;54366;51.980;5.856;2022-12-18T02:34:47;38.28;;;24.38;;
67528;SDS011;54366;51.980;5.856;2022-12-18T02:37:17;37.40;;;24.48;;
67528;SDS011;54366;51.980;5.856;2022-12-18T02:39:47;39.67;;;25.55;;
67528;SDS011;54366;51.980;5.856;2022-12-18T02:42:15;41.08;;;25.92;;
67528;SDS011;54366;51.980;5.856;2022-12-18T02:44:46;40.60;;;24.73;;
67528;SDS011;54366;51.980;5.856;2022-12-18T02:47:19;40.05;;;24.55;;
67528;SDS011;54366;51.980;5.856;2022-12-18T02:49:52;41.22;;;25.23;;
67528;SDS011;54366;51.980;5.856;2022-12-18T02:53:43;39.55;;;24.02;;
67528;SDS011;54366;51.980;5.856;2022-12-18T02:59:00;35.25;;;22.58;;
67528;SDS011;54366;51.980;5.856;2022-12-18T03:01:55;36.28;;;22.88;;
67528;SDS011;54366;51.980;5.856;2022-12-18T03:04:33;35.75;;;22.17;;
67528;SDS011;54366;51.980;5.856;2022-12-18T03:07:18;35.25;;;22.15;;
67528;SDS011;54366;51.980;5.856;2022-12-18T03:09:51;36.38;;;21.98;;
67528;SDS011;54366;51.980;5.856;2022-12-18T03:12:24;33.92;;;21.48;;
67528;SDS011;54366;51.980;5.856;2022-12-18T03:15:04;34.38;;;22.50;;
67528;SDS011;54366;51.980;5.856;2022-12-18T03:17:50;34.30;;;20.77;;
67528;SDS011;54366;51.980;5.856;2022-12-18T03:20:25;35.45;;;21.83;;
67528;SDS011;54366;51.980;5.856;2022-12-18T03:22:59;36.30;;;21.58;;
67528;SDS011;54366;51.980;5.856;2022-12-18T03:25:35;34.13;;;21.20;;
67528;SDS011;54366;51.980;5.856;2022-12-18T03:28:06;35.58;;;22.48;;
67528;SDS011;54366;51.980;5.856;2022-12-18T03:30:36;34.47;;;20.67;;
67528;SDS011;54366;51.980;5.856;2022-12-18T03:33:07;36.67;;;22.58;;
67528;SDS011;54366;51.980;5.856;2022-12-18T03:35:42;34.22;;;22.27;;
67528;SDS011;54366;51.980;5.856;2022-12-18T03:38:10;37.33;;;22.77;;
67528;SDS011;54366;51.980;5.856;2022-12-18T03:40:50;36.10;;;21.25;;
67528;SDS011;54366;51.980;5.856;2022-12-18T03:44:04;34.80;;;21.08;;
67528;SDS011;54366;51.980;5.856;2022-12-18T03:46:43;33.10;;;20.98;;
67528;SDS011;54366;51.980;5.856;2022-12-18T03:49:45;32.42;;;20.92;;
67528;SDS011;54366;51.980;5.856;2022-12-18T03:52:51;35.35;;;21.60;;
67528;SDS011;54366;51.980;5.856;2022-12-18T03:55:22;34.53;;;20.75;;
67528;SDS011;54366;51.980;5.856;2022-12-18T03:57:57;30.90;;;18.90;;
67528;SDS011;54366;51.980;5.856;2022-12-18T04:00:30;33.22;;;20.88;;
67528;SDS011;54366;51.980;5.856;2022-12-18T04:03:05;35.38;;;22.25;;
67528;SDS011;54366;51.980;5.856;2022-12-18T04:05:40;31.50;;;20.60;;
67528;SDS011;54366;51.980;5.856;2022-12-18T04:08:10;31.70;;;20.52;;
67528;SDS011;54366;51.980;5.856;2022-12-18T04:10:41;31.88;;;19.90;;
67528;SDS011;54366;51.980;5.856;2022-12-18T04:13:08;33.42;;;19.38;;
67528;SDS011;54366;51.980;5.856;2022-12-18T04:15:35;31.20;;;19.40;;
67528;SDS011;54366;51.980;5.856;2022-12-18T04:18:05;28.92;;;18.17;;
67528;SDS011;54366;51.980;5.856;2022-12-18T04:20:43;26.73;;;17.48;;
67528;SDS011;54366;51.980;5.856;2022-12-18T04:23:11;26.75;;;17.85;;
67528;SDS011;54366;51.980;5.856;2022-12-18T04:25:38;27.35;;;16.80;;
67528;SDS011;54366;51.980;5.856;2022-12-18T04:28:08;26.88;;;16.70;;
67528;SDS011;54366;51.980;5.856;2022-12-18T04:30:37;26.52;;;16.98;;
67528;SDS011;54366;51.980;5.856;2022-12-18T04:33:08;29.15;;;17.67;;
67528;SDS011;54366;51.980;5.856;2022-12-18T04:35:41;28.45;;;17.05;;
67528;SDS011;54366;51.980;5.856;2022-12-18T04:38:07;25.02;;;16.48;;
67528;SDS011;54366;51.980;5.856;2022-12-18T04:40:34;30.10;;;18.80;;
67528;SDS011;54366;51.980;5.856;2022-12-18T04:43:03;25.65;;;15.98;;
67528;SDS011;54366;51.980;5.856;2022-12-18T04:45:30;28.27;;;18.00;;
67528;SDS011;54366;51.980;5.856;2022-12-18T04:47:57;26.52;;;16.92;;
67528;SDS011;54366;51.980;5.856;2022-12-18T04:50:24;25.55;;;16.63;;
67528;SDS011;54366;51.980;5.856;2022-12-18T04:52:51;23.88;;;15.32;;
67528;SDS011;54366;51.980;5.856;2022-12-18T04:55:17;23.00;;;15.40;;
67528;SDS011;54366;51.980;5.856;2022-12-18T04:57:43;23.75;;;15.43;;
67528;SDS011;54366;51.980;5.856;2022-12-18T05:00:10;23.05;;;15.02;;
67528;SDS011;54366;51.980;5.856;2022-12-18T05:02:37;23.35;;;14.82;;
67528;SDS011;54366;51.980;5.856;2022-12-18T05:05:03;23.30;;;15.50;;
67528;SDS011;54366;51.980;5.856;2022-12-18T05:07:30;25.60;;;16.02;;
67528;SDS011;54366;51.980;5.856;2022-12-18T05:09:56;25.83;;;15.88;;
67528;SDS011;54366;51.980;5.856;2022-12-18T05:12:22;22.55;;;15.82;;
67528;SDS011;54366;51.980;5.856;2022-12-18T05:14:49;25.55;;;15.73;;
67528;SDS011;54366;51.980;5.856;2022-12-18T05:17:15;24.05;;;14.65;;
67528;SDS011;54366;51.980;5.856;2022-12-18T05:19:41;21.83;;;14.40;;
67528;SDS011;54366;51.980;5.856;2022-12-18T05:22:08;23.13;;;14.43;;
67528;SDS011;54366;51.980;5.856;2022-12-18T05:24:34;20.05;;;13.75;;
67528;SDS011;54366;51.980;5.856;2022-12-18T05:27:01;21.05;;;13.23;;
67528;SDS011;54366;51.980;5.856;2022-12-18T05:29:27;20.98;;;14.52;;
67528;SDS011;54366;51.980;5.856;2022-12-18T05:31:53;23.25;;;14.27;;
67528;SDS011;54366;51.980;5.856;2022-12-18T05:34:20;22.38;;;15.10;;
67528;SDS011;54366;51.980;5.856;2022-12-18T05:36:46;21.45;;;14.35;;
67528;SDS011;54366;51.980;5.856;2022-12-18T05:39:12;21.20;;;13.73;;
67528;SDS011;54366;51.980;5.856;2022-12-18T05:41:38;21.13;;;14.27;;
67528;SDS011;54366;51.980;5.856;2022-12-18T05:44:05;21.67;;;14.23;;
67528;SDS011;54366;51.980;5.856;2022-12-18T05:46:31;22.58;;;14.65;;
67528;SDS011;54366;51.980;5.856;2022-12-18T05:49:00;20.45;;;13.85;;
67528;SDS011;54366;51.980;5.856;2022-12-18T05:51:27;22.63;;;15.23;;
67528;SDS011;54366;51.980;5.856;2022-12-18T05:53:53;20.15;;;14.10;;
67528;SDS011;54366;51.980;5.856;2022-12-18T05:56:21;20.35;;;14.15;;
67528;SDS011;54366;51.980;5.856;2022-12-18T05:58:50;20.05;;;13.48;;
67528;SDS011;54366;51.980;5.856;2022-12-18T06:01:19;20.70;;;13.80;;
67528;SDS011;54366;51.980;5.856;2022-12-18T06:03:48;22.50;;;13.98;;
67528;SDS011;54366;51.980;5.856;2022-12-18T06:06:25;19.02;;;12.48;;
67528;SDS011;54366;51.980;5.856;2022-12-18T06:08:53;21.70;;;13.60;;
67528;SDS011;54366;51.980;5.856;2022-12-18T06:11:21;19.13;;;12.55;;
67528;SDS011;54366;51.980;5.856;2022-12-18T06:13:49;19.48;;;13.60;;
67528;SDS011;54366;51.980;5.856;2022-12-18T06:16:17;18.90;;;12.98;;
67528;SDS011;54366;51.980;5.856;2022-12-18T06:18:43;22.17;;;13.77;;
67528;SDS011;54366;51.980;5.856;2022-12-18T06:21:09;22.90;;;13.50;;
67528;SDS011;54366;51.980;5.856;2022-12-18T06:23:36;17.95;;;13.27;;
67528;SDS011;54366;51.980;5.856;2022-12-18T06:26:09;19.95;;;13.65;;
67528;SDS011;54366;51.980;5.856;2022-12-18T06:28:37;20.50;;;12.90;;
67528;SDS011;54366;51.980;5.856;2022-12-18T06:31:04;18.88;;;12.82;;
67528;SDS011;54366;51.980;5.856;2022-12-18T06:33:31;19.75;;;13.52;;
67528;SDS011;54366;51.980;5.856;2022-12-18T06:36:02;20.13;;;13.40;;
67528;SDS011;54366;51.980;5.856;2022-12-18T06:38:35;19.08;;;13.20;;
67528;SDS011;54366;51.980;5.856;2022-12-18T06:41:09;19.67;;;13.13;;
67528;SDS011;54366;51.980;5.856;2022-12-18T06:43:37;19.27;;;12.27;;
67528;SDS011;54366;51.980;5.856;2022-12-18T06:46:04;20.35;;;13.10;;
67528;SDS011;54366;51.980;5.856;2022-12-18T06:48:31;18.60;;;12.63;;
67528;SDS011;54366;51.980;5.856;2022-12-18T06:50:58;18.15;;;12.82;;
67528;SDS011;54366;51.980;5.856;2022-12-18T06:53:24;17.33;;;12.35;;
67528;SDS011;54366;51.980;5.856;2022-12-18T06:55:51;19.58;;;12.95;;
67528;SDS011;54366;51.980;5.856;2022-12-18T06:58:17;17.83;;;12.77;;
67528;SDS011;54366;51.980;5.856;2022-12-18T07:00:44;17.90;;;13.23;;
67528;SDS011;54366;51.980;5.856;2022-12-18T07:03:10;17.13;;;11.70;;
67528;SDS011;54366;51.980;5.856;2022-12-18T07:05:40;18.15;;;13.27;;
67528;SDS011;54366;51.980;5.856;2022-12-18T07:08:06;19.75;;;13.27;;
67528;SDS011;54366;51.980;5.856;2022-12-18T07:10:33;18.48;;;13.15;;
67528;SDS011;54366;51.980;5.856;2022-12-18T07:12:59;19.80;;;13.43;;
67528;SDS011;54366;51.980;5.856;2022-12-18T07:15:25;20.15;;;13.02;;
67528;SDS011;54366;51.980;5.856;2022-12-18T07:17:51;20.83;;;12.98;;
67528;SDS011;54366;51.980;5.856;2022-12-18T07:20:18;21.63;;;14.55;;
67528;SDS011;54366;51.980;5.856;2022-12-18T07:22:44;20.85;;;14.07;;
67528;SDS011;54366;51.980;5.856;2022-12-18T07:25:10;19.38;;;13.13;;
67528;SDS011;54366;51.980;5.856;2022-12-18T07:27:36;18.73;;;12.93;;
67528;SDS011;54366;51.980;5.856;2022-12-18T07:30:03;19.40;;;13.13;;
67528;SDS011;54366;51.980;5.856;2022-12-18T07:32:30;18.92;;;12.75;;
67528;SDS011;54366;51.980;5.856;2022-12-18T07:34:56;18.45;;;12.85;;
67528;SDS011;54366;51.980;5.856;2022-12-18T07:37:22;16.83;;;12.23;;
67528;SDS011;54366;51.980;5.856;2022-12-18T07:39:49;19.20;;;13.70;;
67528;SDS011;54366;51.980;5.856;2022-12-18T07:42:15;21.05;;;12.80;;
67528;SDS011;54366;51.980;5.856;2022-12-18T07:44:59;17.92;;;12.45;;
67528;SDS011;54366;51.980;5.856;2022-12-18T07:47:29;17.95;;;12.55;;
67528;SDS011;54366;51.980;5.856;2022-12-18T07:49:55;18.17;;;12.13;;
67528;SDS011;54366;51.980;5.856;2022-12-18T07:52:22;18.85;;;13.02;;
67528;SDS011;54366;51.980;5.856;2022-12-18T07:54:48;17.08;;;11.85;;
67528;SDS011;54366;51.980;5.856;2022-12-18T07:57:15;19.67;;;12.75;;
67528;SDS011;54366;51.980;5.856;2022-12-18T07:59:42;18.40;;;12.20;;
67528;SDS011;54366;51.980;5.856;2022-12-18T08:02:09;17.17;;;11.98;;
67528;SDS011;54366;51.980;5.856;2022-12-18T08:04:35;17.27;;;11.07;;
67528;SDS011;54366;51.980;5.856;2022-12-18T08:07:01;15.10;;;11.18;;
67528;SDS011;54366;51.980;5.856;2022-12-18T08:09:28;14.35;;;10.75;;
67528;SDS011;54366;51.980;5.856;2022-12-18T08:11:54;13.75;;;9.52;;
67528;SDS011;54366;51.980;5.856;2022-12-18T08:14:20;17.98;;;11.75;;
67528;SDS011;54366;51.980;5.856;2022-12-18T08:16:47;18.40;;;12.57;;
67528;SDS011;54366;51.980;5.856;2022-12-18T08:19:13;17.13;;;12.10;;
67528;SDS011;54366;51.980;5.856;2022-12-18T08:21:39;17.42;;;11.35;;
67528;SDS011;54366;51.980;5.856;2022-12-18T08:24:08;19.55;;;13.18;;
67528;SDS011;54366;51.980;5.856;2022-12-18T08:26:34;15.95;;;11.25;;
67528;SDS011;54366;51.980;5.856;2022-12-18T08:29:01;18.13;;;11.82;;
67528;SDS011;54366;51.980;5.856;2022-12-18T08:31:28;19.38;;;12.55;;
67528;SDS011;54366;51.980;5.856;2022-12-18T08:33:55;16.55;;;11.43;;
67528;SDS011;54366;51.980;5.856;2022-12-18T08:36:22;16.77;;;10.80;;
67528;SDS011;54366;51.980;5.856;2022-12-18T08:38:49;15.60;;;10.63;;
67528;SDS011;54366;51.980;5.856;2022-12-18T08:41:16;18.02;;;11.93;;
67528;SDS011;54366;51.980;5.856;2022-12-18T08:43:43;13.38;;;9.75;;
67528;SDS011;54366;51.980;5.856;2022-12-18T08:46:32;14.77;;;10.52;;
67528;SDS011;54366;51.980;5.856;2022-12-18T08:49:09;13.60;;;9.57;;
67528;SDS011;54366;51.980;5.856;2022-12-18T08:51:36;14.85;;;10.13;;
67528;SDS011;54366;51.980;5.856;2022-12-18T08:54:03;14.35;;;10.20;;
67528;SDS011;54366;51.980;5.856;2022-12-18T08:56:30;16.10;;;11.05;;
67528;SDS011;54366;51.980;5.856;2022-12-18T08:58:57;20.48;;;13.55;;
67528;SDS011;54366;51.980;5.856;2022-12-18T09:01:23;17.65;;;12.45;;
67528;SDS011;54366;51.980;5.856;2022-12-18T09:03:50;19.05;;;12.63;;
67528;SDS011;54366;51.980;5.856;2022-12-18T09:06:17;17.58;;;11.68;;
67528;SDS011;54366;51.980;5.856;2022-12-18T09:08:44;16.80;;;10.90;;
67528;SDS011;54366;51.980;5.856;2022-12-18T09:11:12;17.20;;;11.77;;
67528;SDS011;54366;51.980;5.856;2022-12-18T09:13:40;18.27;;;11.57;;
67528;SDS011;54366;51.980;5.856;2022-12-18T09:16:06;16.65;;;11.25;;
67528;SDS011;54366;51.980;5.856;2022-12-18T09:18:33;16.00;;;10.32;;
67528;SDS011;54366;51.980;5.856;2022-12-18T09:20:59;15.32;;;10.20;;
67528;SDS011;54366;51.980;5.856;2022-12-18T09:23:25;13.90;;;9.85;;
67528;SDS011;54366;51.980;5.856;2022-12-18T09:25:51;13.05;;;9.18;;
67528;SDS011;54366;51.980;5.856;2022-12-18T09:28:24;14.88;;;10.57;;
67528;SDS011;54366;51.980;5.856;2022-12-18T09:30:51;13.90;;;10.10;;
67528;SDS011;54366;51.980;5.856;2022-12-18T09:33:17;15.30;;;11.38;;
67528;SDS011;54366;51.980;5.856;2022-12-18T09:35:44;17.13;;;12.07;;
67528;SDS011;54366;51.980;5.856;2022-12-18T09:38:12;14.32;;;9.80;;
67528;SDS011;54366;51.980;5.856;2022-12-18T09:40:44;18.98;;;11.77;;
67528;SDS011;54366;51.980;5.856;2022-12-18T09:43:16;15.15;;;10.18;;
67528;SDS011;54366;51.980;5.856;2022-12-18T09:45:56;13.95;;;9.95;;
67528;SDS011;54366;51.980;5.856;2022-12-18T09:48:29;16.30;;;10.93;;
67528;SDS011;54366;51.980;5.856;2022-12-18T09:51:01;14.90;;;10.27;;
67528;SDS011;54366;51.980;5.856;2022-12-18T09:53:32;15.45;;;10.63;;
67528;SDS011;54366;51.980;5.856;2022-12-18T09:56:03;14.55;;;10.73;;
67528;SDS011;54366;51.980;5.856;2022-12-18T09:58:35;13.57;;;9.30;;
67528;SDS011;54366;51.980;5.856;2022-12-18T10:01:10;11.40;;;8.50;;
67528;SDS011;54366;51.980;5.856;2022-12-18T10:03:39;17.48;;;11.60;;
67528;SDS011;54366;51.980;5.856;2022-12-18T10:06:07;14.45;;;10.38;;
67528;SDS011;54366;51.980;5.856;2022-12-18T10:08:46;14.10;;;10.23;;
67528;SDS011;54366;51.980;5.856;2022-12-18T10:14:47;16.20;;;10.88;;
67528;SDS011;54366;51.980;5.856;2022-12-18T10:17:41;16.77;;;10.95;;
67528;SDS011;54366;51.980;5.856;2022-12-18T10:20:26;15.88;;;11.18;;
67528;SDS011;54366;51.980;5.856;2022-12-18T10:23:32;15.90;;;11.10;;
67528;SDS011;54366;51.980;5.856;2022-12-18T10:26:06;15.93;;;10.63;;
67528;SDS011;54366;51.980;5.856;2022-12-18T10:28:35;17.08;;;11.77;;
67528;SDS011;54366;51.980;5.856;2022-12-18T10:31:04;14.50;;;10.68;;
67528;SDS011;54366;51.980;5.856;2022-12-18T10:33:45;16.40;;;10.90;;
67528;SDS011;54366;51.980;5.856;2022-12-18T10:36:11;16.08;;;10.30;;
67528;SDS011;54366;51.980;5.856;2022-12-18T10:38:38;15.02;;;10.35;;
67528;SDS011;54366;51.980;5.856;2022-12-18T10:41:05;16.77;;;12.30;;
67528;SDS011;54366;51.980;5.856;2022-12-18T10:47:02;15.68;;;10.93;;
67528;SDS011;54366;51.980;5.856;2022-12-18T10:49:32;14.95;;;10.65;;
67528;SDS011;54366;51.980;5.856;2022-12-18T10:52:07;16.25;;;10.73;;
67528;SDS011;54366;51.980;5.856;2022-12-18T10:54:50;15.02;;;10.13;;
67528;SDS011;54366;51.980;5.856;2022-12-18T10:57:29;14.63;;;10.05;;
67528;SDS011;54366;51.980;5.856;2022-12-18T10:59:59;15.25;;;11.02;;
67528;SDS011;54366;51.980;5.856;2022-12-18T11:02:45;15.52;;;11.20;;
67528;SDS011;54366;51.980;5.856;2022-12-18T11:05:29;14.00;;;10.52;;
67528;SDS011;54366;51.980;5.856;2022-12-18T11:07:57;14.95;;;10.55;;
67528;SDS011;54366;51.980;5.856;2022-12-18T11:10:35;14.80;;;10.07;;
67528;SDS011;54366;51.980;5.856;2022-12-18T11:13:15;17.80;;;11.10;;
67528;SDS011;54366;51.980;5.856;2022-12-18T11:15:44;15.40;;;10.63;;
67528;SDS011;54366;51.980;5.856;2022-12-18T11:21:10;14.40;;;10.55;;
67528;SDS011;54366;51.980;5.856;2022-12-18T11:23:51;16.27;;;10.85;;
67528;SDS011;54366;51.980;5.856;2022-12-18T11:26:19;17.05;;;11.77;;
67528;SDS011;54366;51.980;5.856;2022-12-18T11:28:51;13.88;;;9.85;;
67528;SDS011;54366;51.980;5.856;2022-12-18T11:31:32;16.27;;;10.95;;
67528;SDS011;54366;51.980;5.856;2022-12-18T11:34:10;19.48;;;13.57;;
67528;SDS011;54366;51.980;5.856;2022-12-18T11:36:46;14.52;;;11.20;;
67528;SDS011;54366;51.980;5.856;2022-12-18T11:42:19;15.20;;;11.07;;
67528;SDS011;54366;51.980;5.856;2022-12-18T11:44:55;15.32;;;10.10;;
67528;SDS011;54366;51.980;5.856;2022-12-18T11:47:37;16.85;;;11.43;;
67528;SDS011;54366;51.980;5.856;2022-12-18T11:50:16;15.20;;;10.63;;
67528;SDS011;54366;51.980;5.856;2022-12-18T11:52:49;16.02;;;11.73;;
67528;SDS011;54366;51.980;5.856;2022-12-18T11:55:39;16.92;;;12.13;;
67528;SDS011;54366;51.980;5.856;2022-12-18T12:04:39;25.80;;;13.82;;
67528;SDS011;54366;51.980;5.856;2022-12-18T12:07:34;17.98;;;12.32;;
67528;SDS011;54366;51.980;5.856;2022-12-18T12:10:24;18.55;;;13.68;;
67528;SDS011;54366;51.980;5.856;2022-12-18T12:16:31;18.65;;;12.27;;
67528;SDS011;54366;51.980;5.856;2022-12-18T12:23:09;17.00;;;12.18;;
67528;SDS011;54366;51.980;5.856;2022-12-18T12:26:06;17.88;;;11.82;;
67528;SDS011;54366;51.980;5.856;2022-12-18T12:28:41;16.50;;;11.73;;
67528;SDS011;54366;51.980;5.856;2022-12-18T12:31:42;17.08;;;12.52;;
67528;SDS011;54366;51.980;5.856;2022-12-18T12:37:53;17.58;;;12.10;;
67528;SDS011;54366;51.980;5.856;2022-12-18T12:41:01;17.08;;;11.38;;
67528;SDS011;54366;51.980;5.856;2022-12-18T12:43:52;16.27;;;11.15;;
67528;SDS011;54366;51.980;5.856;2022-12-18T12:46:23;17.63;;;12.32;;
67528;SDS011;54366;51.980;5.856;2022-12-18T12:48:52;16.50;;;11.38;;
67528;SDS011;54366;51.980;5.856;2022-12-18T12:51:28;16.33;;;12.02;;
67528;SDS011;54366;51.980;5.856;2022-12-18T12:54:00;15.55;;;11.82;;
67528;SDS011;54366;51.980;5.856;2022-12-18T12:56:43;14.15;;;10.05;;
67528;SDS011;54366;51.980;5.856;2022-12-18T13:02:52;16.55;;;11.93;;
67528;SDS011;54366;51.980;5.856;2022-12-18T13:05:48;17.20;;;11.70;;
67528;SDS011;54366;51.980;5.856;2022-12-18T13:08:29;16.73;;;12.25;;
67528;SDS011;54366;51.980;5.856;2022-12-18T13:10:58;16.40;;;12.90;;
67528;SDS011;54366;51.980;5.856;2022-12-18T13:13:53;16.75;;;12.23;;
67528;SDS011;54366;51.980;5.856;2022-12-18T13:16:22;16.98;;;12.45;;
67528;SDS011;54366;51.980;5.856;2022-12-18T13:18:50;15.77;;;11.00;;
67528;SDS011;54366;51.980;5.856;2022-12-18T13:21:24;16.05;;;11.50;;
67528;SDS011;54366;51.980;5.856;2022-12-18T13:23:53;17.75;;;12.93;;
67528;SDS011;54366;51.980;5.856;2022-12-18T13:26:28;18.20;;;12.90;;
67528;SDS011;54366;51.980;5.856;2022-12-18T13:28:57;16.65;;;12.13;;
67528;SDS011;54366;51.980;5.856;2022-12-18T13:34:25;15.23;;;11.60;;
67528;SDS011;54366;51.980;5.856;2022-12-18T13:36:55;17.15;;;11.88;;
67528;SDS011;54366;51.980;5.856;2022-12-18T13:39:42;16.00;;;10.90;;
67528;SDS011;54366;51.980;5.856;2022-12-18T13:48:17;18.75;;;12.82;;
67528;SDS011;54366;51.980;5.856;2022-12-18T13:50:53;18.52;;;12.73;;
67528;SDS011;54366;51.980;5.856;2022-12-18T13:53:24;20.05;;;13.25;;
67528;SDS011;54366;51.980;5.856;2022-12-18T13:55:55;20.23;;;14.43;;
67528;SDS011;54366;51.980;5.856;2022-12-18T13:58:21;17.40;;;12.52;;
67528;SDS011;54366;51.980;5.856;2022-12-18T14:00:48;17.38;;;12.80;;
67528;SDS011;54366;51.980;5.856;2022-12-18T14:03:16;17.13;;;12.48;;
67528;SDS011;54366;51.980;5.856;2022-12-18T14:05:55;16.60;;;11.38;;
67528;SDS011;54366;51.980;5.856;2022-12-18T14:08:30;17.40;;;11.85;;
67528;SDS011;54366;51.980;5.856;2022-12-18T14:11:00;17.30;;;12.73;;
67528;SDS011;54366;51.980;5.856;2022-12-18T14:13:31;17.98;;;12.68;;
67528;SDS011;54366;51.980;5.856;2022-12-18T14:16:03;19.17;;;13.85;;
67528;SDS011;54366;51.980;5.856;2022-12-18T14:26:45;17.90;;;13.48;;
67528;SDS011;54366;51.980;5.856;2022-12-18T14:32:15;18.33;;;12.82;;
67528;SDS011;54366;51.980;5.856;2022-12-18T14:34:47;18.75;;;13.07;;
67528;SDS011;54366;51.980;5.856;2022-12-18T14:37:16;19.85;;;13.73;;
67528;SDS011;54366;51.980;5.856;2022-12-18T14:39:57;19.25;;;13.90;;
67528;SDS011;54366;51.980;5.856;2022-12-18T14:42:27;21.15;;;13.95;;
67528;SDS011;54366;51.980;5.856;2022-12-18T14:47:58;18.67;;;13.88;;
67528;SDS011;54366;51.980;5.856;2022-12-18T14:50:25;19.13;;;13.10;;
67528;SDS011;54366;51.980;5.856;2022-12-18T14:52:52;22.60;;;15.32;;
67528;SDS011;54366;51.980;5.856;2022-12-18T14:55:19;23.83;;;15.57;;
67528;SDS011;54366;51.980;5.856;2022-12-18T14:57:49;19.83;;;13.48;;
67528;SDS011;54366;51.980;5.856;2022-12-18T15:00:21;17.57;;;12.20;;
67528;SDS011;54366;51.980;5.856;2022-12-18T15:02:55;22.17;;;15.35;;
67528;SDS011;54366;51.980;5.856;2022-12-18T15:07:57;22.20;;;14.07;;
67528;SDS011;54366;51.980;5.856;2022-12-18T15:10:32;23.58;;;17.45;;
67528;SDS011;54366;51.980;5.856;2022-12-18T15:13:09;21.10;;;14.73;;
67528;SDS011;54366;51.980;5.856;2022-12-18T15:15:47;19.83;;;14.77;;
67528;SDS011;54366;51.980;5.856;2022-12-18T15:20:56;19.95;;;13.82;;
67528;SDS011;54366;51.980;5.856;2022-12-18T15:23:33;18.80;;;13.68;;
67528;SDS011;54366;51.980;5.856;2022-12-18T15:26:21;19.92;;;14.45;;
67528;SDS011;54366;51.980;5.856;2022-12-18T15:28:51;18.98;;;13.63;;
67528;SDS011;54366;51.980;5.856;2022-12-18T15:31:33;22.98;;;15.15;;
67528;SDS011;54366;51.980;5.856;2022-12-18T15:34:11;19.33;;;14.50;;
67528;SDS011;54366;51.980;5.856;2022-12-18T15:36:49;21.23;;;14.45;;
67528;SDS011;54366;51.980;5.856;2022-12-18T15:39:16;20.58;;;13.88;;
67528;SDS011;54366;51.980;5.856;2022-12-18T15:41:43;21.52;;;14.40;;
67528;SDS011;54366;51.980;5.856;2022-12-18T15:44:29;23.20;;;15.85;;
67528;SDS011;54366;51.980;5.856;2022-12-18T15:46:56;22.60;;;14.85;;
67528;SDS011;54366;51.980;5.856;2022-12-18T15:49:23;22.83;;;15.77;;
67528;SDS011;54366;51.980;5.856;2022-12-18T15:51:51;19.58;;;14.05;;
67528;SDS011;54366;51.980;5.856;2022-12-18T15:54:19;22.00;;;15.85;;
67528;SDS011;54366;51.980;5.856;2022-12-18T15:57:08;23.60;;;15.35;;
67528;SDS011;54366;51.980;5.856;2022-12-18T15:59:50;17.90;;;13.63;;
67528;SDS011;54366;51.980;5.856;2022-12-18T16:02:22;19.92;;;14.65;;
67528;SDS011;54366;51.980;5.856;2022-12-18T16:04:49;21.35;;;14.38;;
67528;SDS011;54366;51.980;5.856;2022-12-18T16:07:16;23.13;;;15.90;;